Time;durP1;ratioP1;P1;durP2;ratioP2;P2;SDS_P1;SDS_P2;PMS_P1;PMS_P2;Temp;Humidity;BMP_temperature;BMP_pressure;BME280_temperature;BME280_humidity;BME280_pressure;Samples;Min_cycle;Max_cycle;Signal;HPM_P1;HPM_P2
2023/01/05 00:03:33;;;;;;;0.57;0.50;;;;;;;12.20;67.05;98055.50;8248835;28;20232;-74
2023/01/05 00:07:36;;;;;;;0.50;0.50;;;;;;;12.27;68.06;98061.25;8248820;28;20220;-75
2023/01/05 00:24:42;;;;;;;1.43;0.50;;;;;;;12.12;70.85;98070.63;8248382;28;20231;-74
2023/01/05 00:28:46;;;;;;;0.83;0.67;;;;;;;12.16;71.96;98061.75;8248595;28;20365;-75
2023/01/05 00:32:49;;;;;;;0.77;0.47;;;;;;;12.19;71.95;98051.25;8248581;28;20234;-75
2023/01/05 00:36:52;;;;;;;0.50;0.50;;;;;;;12.18;72.63;98056.50;8250948;28;20231;-75
2023/01/05 00:40:54;;;;;;;0.63;0.60;;;;;;;11.99;72.88;98049.59;8254623;28;20227;-75
2023/01/05 00:44:58;;;;;;;1.03;0.57;;;;;;;12.12;72.69;98050.69;8254575;28;20531;-75
2023/01/05 00:49:01;;;;;;;0.93;0.57;;;;;;;12.15;73.27;98048.84;8253893;28;20243;-75
2023/01/05 00:53:04;;;;;;;0.70;0.50;;;;;;;12.36;72.02;98042.63;8254074;28;20233;-75
2023/01/05 00:57:11;;;;;;;0.63;0.50;;;;;;;12.29;72.12;98023.06;8253831;28;20228;-75
2023/01/05 01:01:17;;;;;;;0.73;0.60;;;;;;;12.17;73.45;98028.88;8253491;28;20231;-75
2023/01/05 01:05:20;;;;;;;0.83;0.70;;;;;;;12.36;72.14;98018.41;8253508;28;20291;-75
2023/01/05 01:09:23;;;;;;;0.93;0.50;;;;;;;12.30;72.49;98015.19;8253684;28;20228;-75
2023/01/05 01:13:26;;;;;;;0.40;0.40;;;;;;;12.15;72.56;98023.75;8253137;28;20428;-74
2023/01/05 01:17:31;;;;;;;0.33;0.30;;;;;;;12.29;71.73;98026.47;8253412;28;20227;-75
2023/01/05 01:21:34;;;;;;;0.50;0.33;;;;;;;12.42;70.90;98013.72;8252657;28;20526;-75
2023/01/05 01:25:38;;;;;;;0.73;0.50;;;;;;;12.49;70.61;97991.72;8253844;28;20236;-75
2023/01/05 01:29:41;;;;;;;1.23;0.30;;;;;;;12.29;71.11;97974.56;8252458;28;20228;-73
2023/01/05 01:33:45;;;;;;;0.60;0.30;;;;;;;12.56;70.07;97974.03;8252747;28;20255;-74
2023/01/05 01:37:48;;;;;;;0.67;0.40;;;;;;;12.39;70.79;97976.69;8252988;28;20260;-74
2023/01/05 01:41:51;;;;;;;0.80;0.50;;;;;;;12.52;69.99;97970.75;8252574;28;20235;-75
2023/01/05 01:45:54;;;;;;;2.00;0.50;;;;;;;12.56;70.06;97994.00;8252564;28;20254;-75
2023/01/05 01:50:02;;;;;;;0.67;0.30;;;;;;;12.50;69.99;97980.41;8252070;28;20236;-74
2023/01/05 01:54:09;;;;;;;0.30;0.30;;;;;;;12.33;70.53;97972.63;8252312;28;20248;-75
2023/01/05 01:58:14;;;;;;;0.33;0.30;;;;;;;12.24;70.36;97955.78;8251973;28;20232;-75
2023/01/05 02:02:18;;;;;;;0.63;0.27;;;;;;;12.51;70.11;97966.50;8251970;28;20232;-74
2023/01/05 02:06:22;;;;;;;1.30;0.20;;;;;;;12.51;69.94;97966.50;8251637;28;20228;-74
2023/01/05 02:10:36;;;;;;;0.40;0.20;;;;;;;12.53;69.36;97963.84;8251597;28;20255;-74
2023/01/05 02:14:48;;;;;;;0.30;0.30;;;;;;;12.40;70.38;97965.38;8251317;28;20232;-74
2023/01/05 02:19:03;;;;;;;0.23;0.23;;;;;;;12.61;69.34;97969.47;8250861;28;20228;-74
2023/01/05 02:23:33;;;;;;;0.30;0.30;;;;;;;12.51;69.55;97974.28;8251052;28;20228;-74
2023/01/05 02:27:42;;;;;;;0.27;0.20;;;;;;;12.48;69.85;97976.22;8250953;28;20225;-74
2023/01/05 02:31:48;;;;;;;0.23;0.20;;;;;;;12.41;69.98;97967.88;8250282;28;20227;-75
2023/01/05 02:35:57;;;;;;;0.27;0.27;;;;;;;12.43;69.87;97960.00;8250676;28;20236;-73
2023/01/05 02:40:04;;;;;;;0.73;0.20;;;;;;;12.25;70.97;97954.84;8250702;28;20526;-74
2023/01/05 02:44:07;;;;;;;0.23;0.23;;;;;;;12.56;69.75;97950.66;8250612;28;20224;-74
2023/01/05 02:48:11;;;;;;;0.40;0.20;;;;;;;12.46;69.40;97936.50;8250374;28;20232;-74
2023/01/05 02:52:15;;;;;;;1.17;0.33;;;;;;;12.44;70.13;97939.16;8250180;28;20237;-74
2023/01/05 02:56:21;;;;;;;0.20;0.20;;;;;;;12.41;69.64;97946.28;8250064;28;20238;-74
2023/01/05 03:00:27;;;;;;;0.57;0.30;;;;;;;12.37;70.17;97922.22;8249218;28;20526;-74
2023/01/05 03:04:34;;;;;;;0.20;0.20;;;;;;;12.58;69.91;97941.03;8249943;28;20242;-74
2023/01/05 03:08:40;;;;;;;0.57;0.30;;;;;;;12.47;69.95;97925.16;8249962;28;20232;-74
2023/01/05 03:17:01;;;;;;;0.37;0.37;;;;;;;12.37;69.68;97921.38;8248161;28;20236;-74
2023/01/05 03:21:06;;;;;;;0.20;0.20;;;;;;;12.47;69.24;97944.22;8249586;28;20236;-74
2023/01/05 03:38:23;;;;;;;0.30;0.30;;;;;;;12.50;69.06;97910.25;8249281;28;20542;-74
2023/01/05 03:42:26;;;;;;;0.30;0.30;;;;;;;12.56;68.92;97916.91;8249157;28;20238;-74
2023/01/05 03:46:29;;;;;;;0.47;0.20;;;;;;;12.47;69.90;97907.84;8249198;28;20228;-74
2023/01/05 03:50:31;;;;;;;0.30;0.30;;;;;;;12.45;69.91;97921.81;8249100;28;20342;-73
2023/01/05 03:54:36;;;;;;;0.83;0.20;;;;;;;12.47;70.84;97923.44;8249071;28;20235;-74
2023/01/05 03:58:38;;;;;;;0.43;0.30;;;;;;;12.50;71.80;97915.47;8249098;28;20244;-73
2023/01/05 04:02:41;;;;;;;0.30;0.30;;;;;;;12.44;72.34;97917.56;8248371;28;20231;-73
2023/01/05 04:06:44;;;;;;;0.30;0.20;;;;;;;12.27;73.04;97926.22;8248881;28;20227;-73
2023/01/05 04:10:48;;;;;;;0.30;0.30;;;;;;;12.32;73.28;97932.03;8249108;28;20246;-74
2023/01/05 04:14:51;;;;;;;0.40;0.30;;;;;;;12.37;72.82;97931.78;8255152;28;20232;-74
2023/01/05 04:18:54;;;;;;;0.40;0.40;;;;;;;12.30;73.43;97923.47;8254841;28;20251;-74
2023/01/05 04:22:57;;;;;;;0.73;0.30;;;;;;;12.29;73.94;97929.56;8254693;28;20281;-74
2023/01/05 04:27:01;;;;;;;0.20;0.20;;;;;;;12.12;76.06;97944.25;8254709;28;20235;-74
2023/01/05 04:31:04;;;;;;;0.30;0.30;;;;;;;12.19;75.88;97939.59;8254532;28;20251;-75
2023/01/05 04:35:07;;;;;;;0.23;0.23;;;;;;;12.29;75.61;97947.75;8254237;28;20236;-74
2023/01/05 04:39:13;;;;;;;0.13;0.13;;;;;;;12.34;75.38;97948.38;8254149;28;20229;-74
2023/01/05 04:43:17;;;;;;;0.30;0.30;;;;;;;12.27;74.99;97950.44;8254211;28;20227;-74
2023/01/05 04:47:20;;;;;;;0.30;0.30;;;;;;;12.40;75.29;97957.59;8254241;28;20232;-74
2023/01/05 04:51:23;;;;;;;0.20;0.20;;;;;;;12.04;77.59;97972.38;8253866;28;20232;-74
2023/01/05 04:55:26;;;;;;;0.20;0.10;;;;;;;12.25;76.03;97972.19;8253838;28;20231;-74
2023/01/05 04:59:30;;;;;;;0.20;0.20;;;;;;;12.16;76.75;97968.31;8253834;28;20262;-74
2023/01/05 05:03:33;;;;;;;0.20;0.20;;;;;;;12.10;77.20;97984.19;8253640;28;20231;-74
2023/01/05 05:07:36;;;;;;;0.10;0.10;;;;;;;12.14;76.67;97977.94;8253367;28;20250;-74
2023/01/05 05:11:39;;;;;;;0.30;0.10;;;;;;;12.27;75.80;97986.78;8253282;28;20323;-74
2023/01/05 05:15:44;;;;;;;0.10;0.10;;;;;;;12.04;76.78;97985.34;8252931;28;20236;-72
2023/01/05 05:19:46;;;;;;;0.30;0.20;;;;;;;12.12;75.94;97977.16;8253048;28;20238;-72
2023/01/05 05:23:49;;;;;;;0.37;0.20;;;;;;;11.96;76.19;97981.47;8251854;28;20400;-74
2023/01/05 05:27:52;;;;;;;0.80;0.37;;;;;;;11.93;76.04;97992.81;8252573;28;20421;-74
2023/01/05 05:31:56;;;;;;;1.27;0.40;;;;;;;11.90;75.62;98001.59;8252753;28;20239;-74
2023/01/05 05:35:59;;;;;;;1.57;0.47;;;;;;;11.79;75.53;98003.03;8252654;28;20227;-73
2023/01/05 05:40:02;;;;;;;1.60;0.40;;;;;;;11.93;74.42;98010.97;8252705;28;20484;-74
2023/01/05 05:44:04;;;;;;;1.87;0.43;;;;;;;11.91;74.46;98018.00;8252504;28;20239;-74
2023/01/05 05:48:08;;;;;;;2.70;0.80;;;;;;;11.76;74.50;98026.50;8252318;28;20230;-73
2023/01/05 05:52:11;;;;;;;3.07;0.90;;;;;;;11.87;73.78;98045.00;8252120;28;20475;-73
2023/01/05 05:56:14;;;;;;;5.37;1.40;;;;;;;11.72;74.10;98042.22;8252294;28;20329;-73
2023/01/05 06:00:17;;;;;;;3.50;1.17;;;;;;;11.57;74.29;98042.09;8251810;28;20520;-73
2023/01/05 06:04:22;;;;;;;4.97;1.40;;;;;;;11.62;74.12;98058.31;8251828;28;20223;-73
2023/01/05 06:08:26;;;;;;;5.47;1.27;;;;;;;11.79;73.93;98081.69;8251780;28;20227;-73
2023/01/05 06:12:28;;;;;;;3.53;1.20;;;;;;;11.65;73.14;98076.28;8251207;28;20339;-74
2023/01/05 06:16:31;;;;;;;5.67;1.20;;;;;;;11.88;72.75;98098.56;8251631;28;20235;-74
2023/01/05 06:20:36;;;;;;;3.63;1.23;;;;;;;11.97;72.21;98095.56;8251143;28;20231;-73
2023/01/05 06:24:39;;;;;;;3.80;1.40;;;;;;;11.84;71.48;98090.09;8251490;28;20555;-73
2023/01/05 06:28:41;;;;;;;5.57;1.30;;;;;;;12.13;71.48;98096.50;8250566;28;20535;-74
2023/01/05 06:32:44;;;;;;;7.10;1.63;;;;;;;12.17;70.47;98099.81;8250787;28;20231;-73
2023/01/05 06:36:48;;;;;;;6.73;1.47;;;;;;;11.80;70.66;98093.72;8250837;28;20286;-74
2023/01/05 06:40:51;;;;;;;6.27;2.20;;;;;;;11.95;70.38;98097.38;8250965;28;20240;-73
2023/01/05 06:44:54;;;;;;;7.57;1.83;;;;;;;12.08;69.76;98119.25;8250719;28;20452;-73
2023/01/05 06:48:56;;;;;;;6.03;1.50;;;;;;;12.05;69.21;98118.56;8250375;28;20232;-73
2023/01/05 06:53:01;;;;;;;3.83;1.37;;;;;;;12.12;68.93;98127.72;8250244;28;20263;-74
2023/01/05 06:57:05;;;;;;;6.97;1.60;;;;;;;12.14;68.89;98128.50;8250255;28;20231;-74
2023/01/05 07:01:08;;;;;;;8.07;2.00;;;;;;;12.07;68.42;98132.28;8250447;28;20448;-73
2023/01/05 07:05:11;;;;;;;8.67;1.70;;;;;;;11.98;68.20;98132.75;8250386;28;20451;-74
2023/01/05 07:09:15;;;;;;;6.80;1.87;;;;;;;11.98;67.23;98143.97;8249987;28;20237;-74
2023/01/05 07:13:18;;;;;;;8.07;2.10;;;;;;;11.99;66.20;98144.81;8249905;28;20508;-74
2023/01/05 07:17:20;;;;;;;9.80;2.27;;;;;;;11.82;66.33;98148.16;8249992;28;20536;-73
2023/01/05 07:21:23;;;;;;;8.67;2.63;;;;;;;11.46;67.00;98160.16;8249705;28;20527;-74
2023/01/05 07:25:30;;;;;;;8.83;2.30;;;;;;;11.69;65.65;98156.53;8249340;28;20227;-74
2023/01/05 07:29:33;;;;;;;8.63;2.20;;;;;;;11.57;65.29;98170.03;8249145;28;20542;-73
2023/01/05 07:33:36;;;;;;;7.63;2.13;;;;;;;11.77;64.95;98174.31;8249359;28;20231;-74
2023/01/05 07:37:43;;;;;;;7.73;1.87;;;;;;;11.81;64.63;98172.44;8240816;28;20235;-73
2023/01/05 07:41:47;;;;;;;8.97;2.27;;;;;;;11.68;63.97;98179.94;8249188;28;20240;-74
2023/01/05 07:45:50;;;;;;;8.77;1.87;;;;;;;11.70;63.60;98180.69;8248537;28;20519;-74
2023/01/05 07:49:53;;;;;;;9.33;2.17;;;;;;;11.48;64.40;98168.72;8249169;28;20531;-74
2023/01/05 07:53:56;;;;;;;12.40;2.23;;;;;;;11.72;64.01;98173.69;8248720;28;20236;-74
2023/01/05 07:58:00;;;;;;;8.23;2.60;;;;;;;11.55;64.44;98183.06;8249025;28;20431;-74
2023/01/05 08:02:03;;;;;;;7.53;2.07;;;;;;;11.65;64.34;98187.84;8249241;28;20433;-75
2023/01/05 08:06:08;;;;;;;6.77;2.17;;;;;;;11.60;63.46;98192.41;8248946;28;20227;-75
2023/01/05 08:10:29;;;;;;;8.97;2.00;;;;;;;11.74;63.18;98192.63;8248774;28;20227;-74
2023/01/05 08:14:33;;;;;;;7.33;2.20;;;;;;;11.75;63.01;98194.31;8248807;28;20246;-74
2023/01/05 08:18:36;;;;;;;9.37;2.33;;;;;;;11.67;63.24;98197.25;8248912;28;20231;-74
2023/01/05 08:22:39;;;;;;;7.63;1.73;;;;;;;11.69;63.01;98211.00;8248507;28;20519;-74
2023/01/05 08:26:41;;;;;;;8.10;1.83;;;;;;;11.65;62.12;98214.66;8248335;28;20219;-75
2023/01/05 08:30:46;;;;;;;9.10;1.93;;;;;;;11.74;62.08;98226.34;8248910;28;20228;-75
2023/01/05 08:34:49;;;;;;;7.70;1.90;;;;;;;11.49;61.91;98240.41;8248636;28;20236;-75
2023/01/05 08:39:00;;;;;;;6.37;1.93;;;;;;;11.62;61.99;98232.09;8248763;28;20250;-75
2023/01/05 08:43:02;;;;;;;10.93;2.20;;;;;;;11.68;60.99;98230.06;8248446;28;20233;-76
2023/01/05 08:47:07;;;;;;;7.27;2.00;;;;;;;11.87;59.97;98245.63;8248687;28;20232;-75
2023/01/05 08:51:09;;;;;;;8.67;2.60;;;;;;;11.96;60.38;98257.41;8248652;28;20246;-75
2023/01/05 08:55:12;;;;;;;8.17;2.00;;;;;;;11.81;59.30;98260.66;8248584;28;20242;-75
2023/01/05 08:59:15;;;;;;;6.83;2.17;;;;;;;11.93;59.37;98268.75;8251200;28;20430;-75
2023/01/05 09:03:19;;;;;;;10.57;2.23;;;;;;;11.25;60.30;98228.50;8253982;28;20232;-75
2023/01/05 09:07:23;;;;;;;10.83;2.17;;;;;;;11.93;59.41;98278.28;8253794;28;20254;-75
2023/01/05 09:11:26;;;;;;;6.57;1.93;;;;;;;12.20;59.37;98273.59;8253550;28;20235;-76
2023/01/05 09:15:28;;;;;;;7.00;1.90;;;;;;;12.01;59.55;98280.53;8253696;28;20235;-76
2023/01/05 09:19:33;;;;;;;8.10;2.00;;;;;;;11.99;59.25;98295.34;8253606;28;20228;-76
2023/01/05 09:23:36;;;;;;;7.50;1.73;;;;;;;12.19;59.05;98284.91;8253402;28;20386;-79
2023/01/05 09:27:40;;;;;;;5.80;1.90;;;;;;;12.26;58.82;98293.25;8253620;28;20234;-79
2023/01/05 09:31:43;;;;;;;7.07;1.90;;;;;;;12.12;58.68;98260.13;8220759;28;20431;-78
2023/01/05 09:35:54;;;;;;;6.40;1.87;;;;;;;12.58;57.57;98296.94;8221039;28;20319;-78
2023/01/05 09:39:57;;;;;;;6.60;1.80;;;;;;;12.50;58.16;98297.31;8220895;28;20420;-79
2023/01/05 09:44:04;;;;;;;8.67;2.10;;;;;;;12.40;58.04;98305.63;8220984;28;20233;-79
2023/01/05 09:48:09;;;;;;;8.40;1.83;;;;;;;12.39;58.25;98302.16;8220958;28;20229;-79
2023/01/05 09:52:14;;;;;;;6.23;1.67;;;;;;;12.31;58.22;98312.06;8220590;28;20233;-78
2023/01/05 09:56:25;;;;;;;5.10;1.60;;;;;;;12.55;57.94;98306.66;8220745;28;20240;-77
2023/01/05 10:00:56;;;;;;;7.87;1.80;;;;;;;12.48;58.55;98300.91;8252006;28;20244;-78
2023/01/05 10:05:00;;;;;;;5.53;1.80;;;;;;;12.36;58.38;98309.28;8252077;28;20237;-78
2023/01/05 10:09:05;;;;;;;9.90;1.90;;;;;;;12.25;57.98;98304.56;8251767;28;20299;-79
2023/01/05 10:13:18;;;;;;;5.73;1.87;;;;;;;12.36;58.08;98317.91;8251712;28;20242;-78
2023/01/05 10:17:23;;;;;;;6.77;1.80;;;;;;;12.46;58.16;98313.94;8251917;28;20235;-78
2023/01/05 10:21:52;;;;;;;6.63;1.87;;;;;;;12.22;58.78;98307.28;8251039;28;20423;-77
2023/01/05 10:26:01;;;;;;;3.80;1.30;;;;;;;12.68;58.38;98290.41;8252410;28;20306;-78
2023/01/05 10:30:13;;;;;;;6.27;1.70;;;;;;;12.35;58.37;98263.41;8252026;28;20228;-79
2023/01/05 10:34:21;;;;;;;7.43;1.70;;;;;;;12.42;58.58;98278.66;8251510;28;20232;-78
2023/01/05 10:38:34;;;;;;;6.93;1.90;;;;;;;12.80;57.32;98309.75;8251098;28;20252;-76
2023/01/05 10:42:54;;;;;;;4.13;1.37;;;;;;;13.47;55.52;98245.78;8251279;28;20292;-77
2023/01/05 10:46:57;;;;;;;6.10;1.87;;;;;;;13.85;54.97;98305.41;8251067;28;20273;-76
2023/01/05 10:51:00;;;;;;;6.57;1.90;;;;;;;13.52;55.33;98300.19;8252428;28;20245;-78
2023/01/05 10:55:13;;;;;;;6.70;1.83;;;;;;;13.60;55.61;98286.81;8250960;28;20239;-78
2023/01/05 10:59:17;;;;;;;5.70;1.77;;;;;;;13.35;56.60;98302.81;8250772;28;20232;-78
2023/01/05 11:03:24;;;;;;;8.43;1.70;;;;;;;13.46;56.46;98319.56;8250350;28;20232;-76
2023/01/05 11:07:48;;;;;;;6.40;1.87;;;;;;;13.11;56.46;98318.66;8250040;28;20520;-77
2023/01/05 11:11:55;;;;;;;9.53;2.13;;;;;;;13.00;56.94;98320.94;8251609;28;20249;-77
2023/01/05 11:16:06;;;;;;;4.23;1.73;;;;;;;12.99;57.60;98321.88;8251788;28;20244;-78
2023/01/05 11:20:16;;;;;;;7.87;2.00;;;;;;;13.08;57.55;98327.47;8250625;28;20240;-79
2023/01/05 11:24:30;;;;;;;9.60;2.00;;;;;;;12.81;57.85;98336.59;8250041;28;20245;-78
2023/01/05 11:28:34;;;;;;;9.33;2.10;;;;;;;12.74;57.91;98336.06;8249891;28;20235;-79
2023/01/05 11:32:40;;;;;;;9.33;2.40;;;;;;;12.71;58.32;98331.81;8250081;28;20532;-78
2023/01/05 11:36:43;;;;;;;8.03;2.07;;;;;;;12.85;58.23;98327.72;8250405;28;20232;-76
2023/01/05 11:40:46;;;;;;;8.90;2.40;;;;;;;12.76;58.53;98325.59;8250145;28;20238;-79
2023/01/05 11:44:51;;;;;;;6.10;2.20;;;;;;;13.20;57.31;98323.44;8249679;28;20558;-79
2023/01/05 11:48:56;;;;;;;4.93;1.93;;;;;;;13.13;57.35;98322.03;8249735;28;20238;-79
2023/01/05 11:53:00;;;;;;;9.40;2.33;;;;;;;13.24;56.90;98342.31;8249488;28;20234;-80
2023/01/05 11:57:14;;;;;;;10.20;2.70;;;;;;;13.66;56.36;98348.94;8249991;28;20235;-79
2023/01/05 12:01:49;;;;;;;10.17;2.13;;;;;;;13.72;56.25;98358.19;8249487;28;20231;-79
2023/01/05 12:05:55;;;;;;;5.87;2.17;;;;;;;14.14;55.50;98349.91;8249659;28;20250;-78
2023/01/05 12:10:00;;;;;;;7.17;2.03;;;;;;;13.98;55.60;98349.03;8249196;28;20741;-78
2023/01/05 12:14:18;;;;;;;8.37;2.03;;;;;;;13.79;54.63;98341.34;8249159;28;20241;-79
2023/01/05 12:18:32;;;;;;;7.27;1.83;;;;;;;14.05;54.41;98339.97;8249217;28;20523;-80
2023/01/05 12:22:57;;;;;;;7.50;2.10;;;;;;;13.81;54.19;98350.75;8248667;28;20238;-79
2023/01/05 12:27:10;;;;;;;7.13;2.00;;;;;;;15.18;59.46;98340.78;8248372;28;20334;-75
2023/01/05 12:31:27;;;;;;;8.53;2.10;;;;;;;15.09;55.67;98336.06;8248626;28;20540;-76
2023/01/05 12:36:04;;;;;;;7.30;2.10;;;;;;;14.64;53.60;98349.00;8254270;28;20283;-79
2023/01/05 12:40:28;;;;;;;7.73;2.10;;;;;;;14.06;55.76;98345.09;8254965;28;20239;-78
2023/01/05 12:44:44;;;;;;;10.07;2.50;;;;;;;14.07;56.09;98359.81;8254098;28;20569;-76
2023/01/05 12:48:51;;;;;;;5.90;1.73;;;;;;;13.98;58.25;98370.72;8253986;28;20228;-76
2023/01/05 12:52:59;;;;;;;8.93;2.47;;;;;;;13.78;60.09;98373.50;8254224;28;20243;-76
2023/01/05 12:57:09;;;;;;;5.00;1.70;;;;;;;13.64;59.82;98372.44;8253817;28;20235;-75
2023/01/05 13:01:18;;;;;;;7.23;2.20;;;;;;;13.83;58.86;98367.13;8254152;28;20232;-75
2023/01/05 13:05:23;;;;;;;8.83;2.27;;;;;;;13.72;59.41;98363.41;8254015;28;20227;-75
2023/01/05 13:09:27;;;;;;;10.63;2.50;;;;;;;13.73;60.55;98365.94;8253714;28;20235;-76
2023/01/05 13:13:34;;;;;;;9.90;2.77;;;;;;;13.44;61.40;98370.84;8253604;28;20236;-82
2023/01/05 13:17:41;;;;;;;7.63;2.17;;;;;;;13.45;62.32;98364.69;8253728;28;20547;-77
2023/01/05 13:21:45;;;;;;;8.30;2.20;;;;;;;13.41;62.67;98362.34;8252736;28;20239;-78
2023/01/05 13:25:51;;;;;;;9.07;2.40;;;;;;;13.58;61.54;98357.13;8253152;28;20408;-77
2023/01/05 13:29:59;;;;;;;11.07;2.50;;;;;;;13.41;61.04;98349.31;8253226;28;20530;-78
2023/01/05 13:34:27;;;;;;;12.33;3.00;;;;;;;13.95;59.96;98333.56;8253107;28;20257;-78
2023/01/05 13:39:07;;;;;;;9.93;2.63;;;;;;;14.10;59.26;98344.97;8252755;28;20234;-78
2023/01/05 13:43:28;;;;;;;7.47;2.37;;;;;;;14.13;58.54;98357.81;8248013;28;20230;-76
2023/01/05 13:47:48;;;;;;;14.10;2.77;;;;;;;13.58;58.74;98357.13;8252772;28;20242;-75
2023/01/05 13:51:59;;;;;;;11.20;2.70;;;;;;;13.45;58.09;98363.88;8252026;28;20302;-79
2023/01/05 13:56:05;;;;;;;14.00;3.30;;;;;;;13.21;57.68;98355.47;8279462;28;20254;-78
2023/01/05 14:00:21;;;;;;;9.97;2.53;;;;;;;13.34;56.86;98359.19;8284786;28;20230;-78
2023/01/05 14:04:27;;;;;;;12.07;2.73;;;;;;;13.43;56.47;98365.69;8284616;28;20299;-77
2023/01/05 14:08:38;;;;;;;10.03;2.80;;;;;;;13.58;55.77;98369.31;8284124;28;20530;-78
2023/01/05 14:12:45;;;;;;;9.10;2.43;;;;;;;13.71;55.33;98379.91;8283954;28;20237;-74
2023/01/05 14:16:53;;;;;;;9.17;2.50;;;;;;;13.52;55.04;98334.03;8283434;28;20245;-74
2023/01/05 14:20:57;;;;;;;12.63;2.93;;;;;;;13.54;55.53;98393.81;8283403;28;20234;-76
2023/01/05 14:25:48;;;;;;;9.70;3.23;;;;;;;13.45;56.03;98406.31;8283476;28;20238;-75
2023/01/05 14:30:22;;;;;;;11.00;2.90;;;;;;;13.61;56.15;98416.84;8283063;28;20226;-75
2023/01/05 14:34:26;;;;;;;11.63;2.53;;;;;;;13.43;56.37;98412.53;8283160;28;20234;-75
2023/01/05 14:38:30;;;;;;;12.97;3.20;;;;;;;13.33;56.97;98422.53;8283038;28;20432;-75
2023/01/05 14:42:38;;;;;;;11.67;3.13;;;;;;;13.29;56.64;98424.41;8282985;28;20229;-77
2023/01/05 14:46:46;;;;;;;11.20;3.50;;;;;;;13.11;57.12;98425.28;8250512;28;20240;-74
2023/01/05 14:51:12;;;;;;;13.57;3.33;;;;;;;13.30;56.52;98438.28;8250572;28;20238;-76
2023/01/05 14:55:21;;;;;;;12.87;3.37;;;;;;;13.09;57.21;98427.13;8250246;28;20390;-76
2023/01/05 14:59:40;;;;;;;11.17;3.27;;;;;;;13.08;57.37;98430.66;8250216;28;20246;-76
2023/01/05 15:03:49;;;;;;;11.03;3.50;;;;;;;12.91;57.44;98429.66;8249818;28;20238;-75
2023/01/05 15:08:03;;;;;;;19.17;5.67;;;;;;;12.86;57.81;98433.41;8249827;28;20231;-77
2023/01/05 15:12:34;;;;;;;15.07;5.47;;;;;;;12.98;57.42;98440.59;8250094;28;20252;-76
2023/01/05 15:16:55;;;;;;;13.77;5.47;;;;;;;13.08;56.84;98435.84;8249423;28;20236;-75
2023/01/05 15:21:16;;;;;;;11.37;4.07;;;;;;;12.88;56.49;98415.97;8249268;28;20242;-75
2023/01/05 15:25:41;;;;;;;14.50;4.20;;;;;;;12.95;57.41;98453.75;8249279;28;20410;-76
2023/01/05 15:30:38;;;;;;;11.57;2.97;;;;;;;13.00;57.08;98446.56;8249063;28;20391;-76
2023/01/05 15:34:45;;;;;;;12.30;3.03;;;;;;;12.91;57.52;98455.66;8247846;28;20296;-74
2023/01/05 15:38:48;;;;;;;14.30;3.03;;;;;;;12.94;57.66;98444.25;8249032;28;20242;-76
2023/01/05 15:42:53;;;;;;;11.20;2.97;;;;;;;12.86;57.64;98465.41;8249834;28;20229;-76
2023/01/05 15:46:58;;;;;;;9.37;3.03;;;;;;;12.90;57.67;98446.16;8248896;28;20248;-78
2023/01/05 15:51:01;;;;;;;10.17;2.93;;;;;;;14.58;67.21;98466.63;8249331;28;20243;-84
2023/01/05 15:55:12;;;;;;;11.43;3.10;;;;;;;15.03;62.89;98465.06;8248011;28;20237;-84
2023/01/05 15:59:22;;;;;;;10.57;3.30;;;;;;;14.31;55.44;98475.84;8249520;28;20433;-75
2023/01/05 16:03:28;;;;;;;9.97;3.23;;;;;;;13.81;55.76;98486.13;8248838;28;20224;-76
2023/01/05 16:07:31;;;;;;;10.70;3.50;;;;;;;13.52;55.55;98477.13;8250550;28;20228;-76
2023/01/05 16:11:38;;;;;;;11.23;3.17;;;;;;;13.45;55.98;98479.16;8255291;28;20234;-76
2023/01/05 16:15:41;;;;;;;15.23;3.60;;;;;;;13.10;56.76;98479.06;8255359;28;20258;-76
2023/01/05 16:19:48;;;;;;;12.10;3.40;;;;;;;12.74;56.85;98441.72;8253485;28;20235;-77
2023/01/05 16:23:53;;;;;;;14.67;3.50;;;;;;;12.81;57.79;98483.00;8253195;28;20550;-76
2023/01/05 16:28:02;;;;;;;13.27;4.50;;;;;;;12.65;57.94;98477.63;8252643;28;20244;-76
2023/01/05 16:32:25;;;;;;;13.53;3.37;;;;;;;12.79;57.36;98491.75;8251759;28;20231;-76
2023/01/05 16:36:29;;;;;;;10.10;3.13;;;;;;;12.62;57.93;98492.50;8252031;28;20237;-76
2023/01/05 16:40:32;;;;;;;10.20;3.23;;;;;;;12.51;57.84;98505.97;8251589;28;20531;-75
2023/01/05 16:44:35;;;;;;;11.07;3.10;;;;;;;12.67;57.79;98499.19;8251030;28;20236;-76
2023/01/05 16:48:48;;;;;;;12.43;3.03;;;;;;;12.62;57.17;98511.56;8251008;28;20542;-76
2023/01/05 16:52:53;;;;;;;8.70;2.80;;;;;;;12.55;57.58;98519.69;8250305;28;20616;-76
2023/01/05 16:56:58;;;;;;;12.97;3.20;;;;;;;12.67;57.61;98529.53;8250982;28;20238;-80
2023/01/05 17:01:15;;;;;;;12.43;3.43;;;;;;;12.68;57.63;98526.03;8251154;28;20287;-79
2023/01/05 17:05:20;;;;;;;22.17;4.00;;;;;;;12.70;57.96;98529.41;8251461;28;20300;-77
2023/01/05 17:09:26;;;;;;;13.00;3.23;;;;;;;12.69;57.70;98525.94;8250914;28;20265;-78
2023/01/05 17:13:35;;;;;;;15.03;4.03;;;;;;;12.79;57.68;98530.75;8250707;28;20234;-77
2023/01/05 17:17:38;;;;;;;12.47;3.33;;;;;;;12.83;57.62;98538.34;8250636;28;20231;-77
2023/01/05 17:21:42;;;;;;;12.50;3.50;;;;;;;12.82;57.80;98533.22;8249125;28;20521;-76
2023/01/05 17:25:46;;;;;;;10.70;3.40;;;;;;;12.63;57.85;98528.81;8250109;28;20343;-76
2023/01/05 17:29:49;;;;;;;11.37;3.30;;;;;;;12.68;58.24;98534.66;8250416;28;20565;-77
2023/01/05 17:33:52;;;;;;;11.13;3.40;;;;;;;12.58;58.45;98542.91;8250288;28;20242;-77
2023/01/05 17:37:54;;;;;;;12.30;3.20;;;;;;;12.55;58.39;98543.91;8249843;28;20231;-77
2023/01/05 17:42:41;;;;;;;12.20;4.23;;;;;;;12.52;58.39;98544.03;8250083;28;20561;-76
2023/01/05 17:46:28;;;;;;;9.37;3.27;;;;;;;12.57;58.71;98555.06;8249446;28;20343;-75
2023/01/05 17:50:32;;;;;;;14.83;3.63;;;;;;;12.40;59.04;98555.78;8249838;28;20608;-76
2023/01/05 17:54:35;;;;;;;14.17;3.40;;;;;;;12.59;58.49;98555.00;8249584;28;20234;-76
2023/01/05 17:58:39;;;;;;;14.20;3.37;;;;;;;12.49;58.49;98552.81;8249450;28;20240;-76
2023/01/05 18:02:42;;;;;;;11.73;3.20;;;;;;;12.26;58.63;98517.44;8248941;28;20657;-76
2023/01/05 18:06:45;;;;;;;16.40;3.53;;;;;;;12.47;58.76;98556.34;8248964;28;20242;-76
2023/01/05 18:10:48;;;;;;;12.23;3.30;;;;;;;12.58;58.65;98546.34;8248734;28;20536;-75
2023/01/05 18:14:52;;;;;;;13.60;4.20;;;;;;;12.43;58.73;98550.47;8248393;28;20238;-80
2023/01/05 18:18:55;;;;;;;13.27;3.37;;;;;;;12.43;58.87;98545.28;8248553;28;20516;-79
2023/01/05 18:22:58;;;;;;;12.77;3.60;;;;;;;12.25;59.11;98546.88;8248257;28;20541;-78
2023/01/05 18:27:05;;;;;;;11.33;3.10;;;;;;;12.29;59.33;98551.03;8248450;28;20237;-79
2023/01/05 18:31:14;;;;;;;18.77;5.87;;;;;;;12.31;59.41;98540.59;8248925;28;20343;-78
2023/01/05 18:35:17;;;;;;;12.63;4.00;;;;;;;12.31;59.54;98545.78;8248147;28;20396;-78
2023/01/05 18:39:19;;;;;;;12.97;4.07;;;;;;;12.19;59.28;98549.75;8248204;28;20529;-79
2023/01/05 18:43:22;;;;;;;16.47;4.40;;;;;;;12.24;59.32;98549.53;8248236;28;20235;-78
2023/01/05 18:47:26;;;;;;;12.07;3.63;;;;;;;12.12;59.43;98554.34;8247767;28;20225;-79
2023/01/05 18:51:29;;;;;;;13.30;4.33;;;;;;;12.07;59.88;98555.44;8247562;28;20223;-78
2023/01/05 18:55:32;;;;;;;12.73;4.13;;;;;;;12.05;59.88;98560.72;8247918;28;20332;-79
2023/01/05 18:59:35;;;;;;;15.50;4.80;;;;;;;12.19;59.64;98556.69;8247688;28;20334;-79
2023/01/05 19:03:39;;;;;;;15.33;4.33;;;;;;;12.23;58.84;98559.09;8247474;28;20235;-78
2023/01/05 19:07:42;;;;;;;14.47;4.17;;;;;;;12.22;59.49;98565.22;8246947;28;20231;-80
2023/01/05 19:11:46;;;;;;;12.30;4.20;;;;;;;11.96;59.35;98503.97;8247225;28;20228;-80
2023/01/05 19:15:49;;;;;;;16.30;4.40;;;;;;;12.22;59.51;98549.63;8246993;28;20247;-78
2023/01/05 19:19:53;;;;;;;14.17;4.37;;;;;;;12.40;59.06;98565.34;8246798;28;20236;-81
2023/01/05 19:23:58;;;;;;;12.90;4.00;;;;;;;12.40;59.72;98558.38;8246998;28;20471;-80
2023/01/05 19:28:01;;;;;;;18.97;6.03;;;;;;;12.32;59.44;98561.31;8247098;28;20240;-81
2023/01/05 19:32:04;;;;;;;14.60;4.73;;;;;;;12.37;59.71;98555.91;8246992;28;20235;-79
2023/01/05 19:36:11;;;;;;;12.07;4.00;;;;;;;12.46;59.52;98567.69;8246429;28;20230;-79
2023/01/05 19:40:14;;;;;;;11.33;3.73;;;;;;;12.47;59.57;98562.44;8246519;28;20232;-79
2023/01/05 19:44:19;;;;;;;16.07;4.70;;;;;;;12.39;59.86;98563.63;8245731;28;20236;-78
2023/01/05 19:48:22;;;;;;;15.43;4.40;;;;;;;12.42;60.08;98553.97;8246597;28;20532;-79
2023/01/05 19:52:28;;;;;;;15.10;4.90;;;;;;;12.50;59.74;98561.44;8247588;28;20224;-77